createdAt,value
2018-01-31T01:52:20.344Z,1013.58
2018-01-31T01:52:20.743Z,1008.40
2018-01-31T01:53:09.795Z,1008.34
2018-01-31T01:54:09.753Z,1008.29
2018-01-31T01:55:10.004Z,1008.22
2018-01-31T01:56:09.678Z,1008.23
2018-01-31T01:57:09.615Z,1008.17
2018-01-31T01:58:09.570Z,1008.14
2018-01-31T01:59:09.526Z,1008.12
2018-01-31T02:00:09.483Z,1008.02
2018-01-31T02:01:09.441Z,1007.93
2018-01-31T02:02:09.693Z,1007.91
2018-01-31T02:03:09.350Z,1007.90
2018-01-31T02:04:09.306Z,1007.90
2018-01-31T02:05:09.261Z,1007.88
2018-01-31T02:06:09.218Z,1007.90
2018-01-31T02:07:09.174Z,1007.85
2018-01-31T02:08:09.129Z,1007.84
2018-01-31T02:09:09.387Z,1007.79
2018-01-31T02:10:09.040Z,1007.76
2018-01-31T02:11:09.048Z,1007.75
2018-01-31T02:12:08.951Z,1007.74
2018-01-31T02:13:08.958Z,1007.75
2018-01-31T02:14:08.864Z,1007.68
2018-01-31T02:15:08.824Z,1007.66
2018-01-31T02:16:09.078Z,1007.63
2018-01-31T02:17:08.731Z,1007.58
2018-01-31T02:18:08.687Z,1007.59
2018-01-31T02:19:08.694Z,1007.54
2018-01-31T02:20:08.602Z,1007.40
2018-01-31T02:21:08.553Z,1007.35
2018-01-31T02:22:08.515Z,1007.35
2018-01-31T02:23:08.770Z,1007.33
2018-01-31T02:24:08.421Z,1007.29
2018-01-31T02:25:08.427Z,1007.27
2018-01-31T02:26:08.332Z,1007.24
2018-01-31T02:27:08.288Z,1007.18
2018-01-31T02:28:08.244Z,1007.12
2018-01-31T02:29:08.200Z,1007.16
2018-01-31T02:30:08.456Z,1007.09
2018-01-31T02:31:08.112Z,1007.07
2018-01-31T02:32:08.070Z,1007.07
2018-01-31T02:33:08.030Z,1006.98
2018-01-31T02:34:07.979Z,1006.94
2018-01-31T02:35:07.935Z,1006.86
2018-01-31T02:36:08.192Z,1006.82
2018-01-31T02:37:07.847Z,1006.85
2018-01-31T02:38:07.803Z,1006.79
2018-01-31T02:39:07.758Z,1006.77
2018-01-31T02:40:07.714Z,1006.76
2018-01-31T02:41:07.672Z,1006.70
2018-01-31T02:42:07.926Z,1006.74
2018-01-31T02:43:07.586Z,1006.72
2018-01-31T02:44:07.538Z,1006.65
2018-01-31T02:45:07.495Z,1006.57
2018-01-31T02:46:07.504Z,1006.73
2018-01-31T02:47:07.409Z,1006.69
2018-01-31T02:48:07.662Z,1006.66
2018-01-31T02:49:07.318Z,1006.67
2018-01-31T02:50:07.279Z,1006.62
2018-01-31T02:51:07.231Z,1006.56
2018-01-31T02:52:07.241Z,1006.61
2018-01-31T02:53:07.144Z,1006.52
2018-01-31T02:54:07.398Z,1006.47
2018-01-31T02:55:07.053Z,1006.46
2018-01-31T02:56:07.011Z,1006.35
2018-01-31T02:57:06.967Z,1006.33
2018-01-31T02:58:06.921Z,1006.36
2018-01-31T02:59:06.885Z,1006.33
2018-01-31T03:00:07.135Z,1006.30
2018-01-31T03:01:06.789Z,1006.31
2018-01-31T03:02:06.745Z,1006.26
2018-01-31T03:03:06.754Z,1006.28
2018-01-31T03:04:06.659Z,1006.28
2018-01-31T03:05:06.617Z,1006.29
2018-01-31T03:06:06.570Z,1006.16
2018-01-31T03:07:06.829Z,1006.14
2018-01-31T03:08:06.486Z,1006.04
2018-01-31T03:09:06.489Z,1006.07
2018-01-31T03:10:06.394Z,1006.13
2018-01-31T03:11:06.358Z,1005.98
2018-01-31T03:12:06.307Z,1005.94
2018-01-31T03:13:06.263Z,1005.88
2018-01-31T03:14:06.525Z,1005.85
2018-01-31T03:15:06.225Z,1005.78
2018-01-31T03:16:06.137Z,1005.75
2018-01-31T03:17:06.092Z,1005.66
2018-01-31T03:18:06.093Z,1005.63
2018-01-31T03:19:05.997Z,1005.64
2018-01-31T03:20:05.955Z,1005.59
2018-01-31T03:21:06.211Z,1005.56
2018-01-31T03:22:05.869Z,1005.56
2018-01-31T03:23:05.827Z,1005.56
2018-01-31T03:24:05.779Z,1005.51
2018-01-31T03:25:05.734Z,1005.45
2018-01-31T03:26:05.742Z,1005.40
2018-01-31T03:27:05.646Z,1005.35
2018-01-31T03:28:05.903Z,1005.29
2018-01-31T03:29:05.559Z,1005.24
2018-01-31T03:30:05.516Z,1005.21
2018-01-31T03:31:05.473Z,1005.19
2018-01-31T03:32:05.429Z,1005.10
2018-01-31T03:33:05.389Z,1005.06
2018-01-31T03:34:05.343Z,1005.09
2018-01-31T03:35:05.599Z,1005.08
2018-01-31T03:36:05.307Z,1005.04
2018-01-31T03:37:05.206Z,1004.93
2018-01-31T03:38:05.160Z,1004.94
2018-01-31T03:39:05.120Z,1004.89
2018-01-31T03:40:05.079Z,1004.89
2018-01-31T03:41:05.030Z,1004.96
2018-01-31T03:42:05.285Z,1004.85
2018-01-31T03:43:04.941Z,1004.83
2018-01-31T03:44:04.898Z,1004.79
2018-01-31T03:45:04.858Z,1004.76
2018-01-31T03:46:04.811Z,1004.78
2018-01-31T03:47:04.766Z,1004.75
2018-01-31T03:48:05.040Z,1004.71
2018-01-31T03:49:04.678Z,1004.76
2018-01-31T03:50:04.635Z,1004.62
2018-01-31T03:51:04.590Z,1004.75
2018-01-31T03:52:04.550Z,1004.62
2018-01-31T03:53:04.512Z,1004.60
2018-01-31T03:54:04.759Z,1004.61
2018-01-31T03:55:04.417Z,1004.53
2018-01-31T03:56:04.371Z,1004.50
2018-01-31T03:57:04.330Z,1004.51
2018-01-31T03:58:04.287Z,1004.41
2018-01-31T03:59:04.289Z,1004.42
2018-01-31T04:00:04.533Z,1004.39
2018-01-31T04:01:04.156Z,1004.36
2018-01-31T04:02:04.109Z,1004.32
2018-01-31T04:03:04.068Z,1004.25
2018-01-31T04:04:04.035Z,1004.34
2018-01-31T04:05:04.027Z,1004.26
2018-01-31T04:06:04.235Z,1004.21
2018-01-31T04:07:03.888Z,1004.17
2018-01-31T04:08:03.845Z,1004.14
2018-01-31T04:09:03.800Z,1004.03
2018-01-31T04:10:03.758Z,1004.02
2018-01-31T04:11:03.713Z,1004.08
2018-01-31T04:12:03.969Z,1004.06
2018-01-31T04:13:03.625Z,1004.02
2018-01-31T04:14:03.581Z,1003.93
2018-01-31T04:15:03.537Z,1003.89
2018-01-31T04:16:03.499Z,1003.92
2018-01-31T04:17:03.453Z,1003.86
2018-01-31T04:18:03.406Z,1003.94
2018-01-31T04:19:03.662Z,1003.91
2018-01-31T04:20:03.372Z,1003.87
2018-01-31T04:21:03.274Z,1003.73
2018-01-31T04:22:03.231Z,1003.72
2018-01-31T04:23:03.187Z,1003.65
2018-01-31T04:24:03.148Z,1003.76
2018-01-31T04:25:03.099Z,1003.78
2018-01-31T04:26:03.359Z,1003.73
2018-01-31T04:27:03.011Z,1003.55
2018-01-31T04:28:02.970Z,1003.56
2018-01-31T04:29:02.925Z,1003.59
2018-01-31T04:30:02.879Z,1003.62
2018-01-31T04:31:02.838Z,1003.65
2018-01-31T04:32:02.943Z,1003.65
2018-01-31T04:33:03.050Z,1003.50
2018-01-31T04:34:02.704Z,1003.47
2018-01-31T04:35:02.661Z,1003.39
2018-01-31T04:36:02.619Z,1003.35
2018-01-31T04:37:02.581Z,1003.48
2018-01-31T04:38:02.579Z,1003.58
2018-01-31T04:39:02.485Z,1003.52
2018-01-31T04:40:02.743Z,1003.41
2018-01-31T04:41:02.401Z,1003.35
2018-01-31T04:42:02.405Z,1003.44
2018-01-31T04:43:02.313Z,1003.37
2018-01-31T04:44:02.271Z,1003.39
2018-01-31T04:45:02.226Z,1003.44
2018-01-31T04:46:02.179Z,1003.32
2018-01-31T04:47:02.438Z,1003.32
2018-01-31T04:48:02.093Z,1003.33
2018-01-31T04:49:02.050Z,1003.26
2018-01-31T04:50:02.005Z,1003.32
2018-01-31T04:51:01.968Z,1003.27
2018-01-31T04:52:01.922Z,1003.25
2018-01-31T04:53:01.874Z,1003.13
2018-01-31T04:54:02.130Z,1003.18
2018-01-31T04:55:01.790Z,1003.05
2018-01-31T04:56:01.747Z,1003.05
2018-01-31T04:57:01.700Z,1003.11
2018-01-31T04:58:01.710Z,1003.00
2018-01-31T04:59:01.618Z,1002.97
2018-01-31T05:00:01.922Z,1003.00
2018-01-31T05:01:01.526Z,1003.00
2018-01-31T05:02:01.481Z,1003.04
2018-01-31T05:03:01.442Z,1003.06
2018-01-31T05:04:01.395Z,1003.04
2018-01-31T05:05:01.408Z,1002.99
2018-01-31T05:06:01.607Z,1002.89
2018-01-31T05:07:01.266Z,1002.78
2018-01-31T05:08:01.222Z,1002.77
2018-01-31T05:09:01.178Z,1002.72
2018-01-31T05:10:01.134Z,1002.78
2018-01-31T05:11:01.142Z,1002.75
2018-01-31T05:12:01.352Z,1002.71
2018-01-31T05:13:01.013Z,1002.76
2018-01-31T05:14:00.960Z,1002.72
2018-01-31T05:15:00.916Z,1002.69
2018-01-31T05:16:00.875Z,1002.71
2018-01-31T05:17:00.882Z,1002.66
2018-01-31T05:18:01.086Z,1002.57
2018-01-31T05:19:00.745Z,1002.57
2018-01-31T05:20:00.704Z,1002.51
2018-01-31T05:21:00.657Z,1002.52
2018-01-31T05:22:00.612Z,1002.52
2018-01-31T05:23:00.619Z,1002.43
2018-01-31T05:24:00.826Z,1002.36
2018-01-31T05:25:00.483Z,1002.38
2018-01-31T05:26:00.489Z,1002.40
2018-01-31T05:27:00.395Z,1002.36
2018-01-31T05:28:00.356Z,1002.31
2018-01-31T05:29:00.309Z,1002.24
2018-01-31T05:30:00.268Z,1002.22
2018-01-31T05:31:00.523Z,1002.21
2018-01-31T05:32:00.232Z,1002.21
2018-01-31T05:33:00.140Z,1002.26
2018-01-31T05:34:00.142Z,1002.27
2018-01-31T05:35:00.051Z,1002.20
2018-01-31T05:36:00.067Z,1002.16
2018-01-31T05:36:59.962Z,1002.19
2018-01-31T05:38:00.219Z,1002.08
2018-01-31T05:38:59.876Z,1002.08
2018-01-31T05:40:00.335Z,1002.13
2018-01-31T05:40:59.790Z,1002.03
2018-01-31T05:42:00.888Z,1002.02
2018-01-31T05:42:59.919Z,1002.10
2018-01-31T05:43:59.968Z,1001.97
2018-01-31T05:45:00.104Z,1001.95
2018-01-31T05:46:00.574Z,1001.98
2018-01-31T05:47:00.090Z,1001.95
2018-01-31T05:48:00.040Z,1001.93
2018-01-31T05:49:00.111Z,1001.99
2018-01-31T05:50:00.134Z,1001.99
2018-01-31T05:51:00.007Z,1001.89
2018-01-31T05:52:00.060Z,1001.82
2018-01-31T05:52:59.272Z,1001.82
2018-01-31T05:53:59.227Z,1001.78
2018-01-31T05:54:59.184Z,1001.73
2018-01-31T05:55:59.143Z,1001.78
2018-01-31T05:56:59.098Z,1001.84
2018-01-31T05:57:59.056Z,1001.88
2018-01-31T05:58:59.313Z,1001.77
2018-01-31T05:59:58.969Z,1001.69
2018-01-31T06:00:58.927Z,1001.69
2018-01-31T06:01:58.937Z,1001.63
2018-01-31T06:02:58.844Z,1001.58
2018-01-31T06:03:58.799Z,1001.56
2018-01-31T06:04:58.755Z,1001.59
2018-01-31T06:05:59.010Z,1001.53
2018-01-31T06:06:58.671Z,1001.52
2018-01-31T06:07:58.777Z,1001.63
2018-01-31T06:08:58.643Z,1001.52
2018-01-31T06:09:58.545Z,1001.47
2018-01-31T06:10:58.502Z,1001.47
2018-01-31T06:11:58.777Z,1001.50
2018-01-31T06:12:58.414Z,1001.37
2018-01-31T06:13:58.371Z,1001.43
2018-01-31T06:14:58.376Z,1001.45
2018-01-31T06:15:58.283Z,1001.46
2018-01-31T06:16:58.240Z,1001.36
2018-01-31T06:17:58.495Z,1001.34
2018-01-31T06:18:58.221Z,1001.27
2018-01-31T06:19:59.017Z,1001.36
2018-01-31T06:20:58.422Z,1001.30
2018-01-31T06:21:58.618Z,1001.28
2018-01-31T06:22:58.881Z,1001.33
2018-01-31T06:24:00.236Z,1001.26
2018-01-31T06:24:58.814Z,1001.26
2018-01-31T06:25:58.977Z,1001.19
2018-01-31T06:26:57.811Z,1001.13
2018-01-31T06:27:59.097Z,1001.22
2018-01-31T06:28:57.937Z,1001.18
2018-01-31T06:29:58.700Z,1001.20
2018-01-31T06:30:57.645Z,1001.20
2018-01-31T06:31:58.573Z,1001.10
2018-01-31T06:32:58.475Z,1000.95
2018-01-31T06:33:58.247Z,1001.05
2018-01-31T06:34:58.799Z,1000.97
2018-01-31T06:35:57.734Z,1000.94
2018-01-31T06:36:57.402Z,1000.97
2018-01-31T06:37:57.357Z,1001.02
2018-01-31T06:38:57.300Z,1000.89
2018-01-31T06:39:57.258Z,1000.90
2018-01-31T06:40:57.220Z,1000.78
2018-01-31T06:41:57.170Z,1000.82
2018-01-31T06:42:57.429Z,1000.77
2018-01-31T06:43:57.085Z,1000.68
2018-01-31T06:44:57.053Z,1000.67
2018-01-31T06:45:57.001Z,1000.68
2018-01-31T06:46:56.960Z,1000.63
2018-01-31T06:47:56.921Z,1000.70
2018-01-31T06:48:56.873Z,1000.67
2018-01-31T06:49:57.132Z,1000.66
2018-01-31T06:50:56.791Z,1000.57
2018-01-31T06:51:56.748Z,1000.64
2018-01-31T06:52:56.764Z,1000.65
2018-01-31T06:53:56.710Z,1000.56
2018-01-31T06:54:56.667Z,1000.38
2018-01-31T06:55:56.576Z,1000.58
2018-01-31T06:56:56.833Z,1000.46
2018-01-31T06:57:56.490Z,1000.51
2018-01-31T06:58:56.451Z,1000.47
2018-01-31T06:59:56.405Z,1000.53
2018-01-31T07:00:56.414Z,1000.46
2018-01-31T07:01:56.326Z,1000.50
2018-01-31T07:02:56.277Z,1000.58
2018-01-31T07:03:56.537Z,1000.49
2018-01-31T07:04:56.196Z,1000.46
2018-01-31T07:05:56.153Z,1000.45
2018-01-31T07:06:56.158Z,1000.54
2018-01-31T07:07:56.068Z,1000.46
2018-01-31T07:08:56.024Z,1000.38
2018-01-31T07:09:55.984Z,1000.51
2018-01-31T07:10:56.244Z,1000.31
2018-01-31T07:11:55.903Z,1000.48
2018-01-31T07:12:55.854Z,1000.40
2018-01-31T07:13:55.810Z,1000.41
2018-01-31T07:14:55.768Z,1000.33
2018-01-31T07:15:55.728Z,1000.37
2018-01-31T07:16:55.684Z,1000.28
2018-01-31T07:17:55.942Z,1000.22
2018-01-31T07:18:55.600Z,1000.38
2018-01-31T07:19:55.558Z,1000.31
2018-01-31T07:20:55.517Z,1000.17
2018-01-31T07:21:55.476Z,1000.17
2018-01-31T07:22:55.582Z,1000.20
2018-01-31T07:23:55.689Z,1000.17
2018-01-31T07:24:55.346Z,1000.10
2018-01-31T07:25:55.304Z,1000.00
2018-01-31T07:26:55.261Z,999.99
2018-01-31T07:27:55.218Z,999.92
2018-01-31T07:28:55.227Z,1000.00
2018-01-31T07:29:55.435Z,999.88
2018-01-31T07:30:55.142Z,999.86
2018-01-31T07:31:55.050Z,999.83
2018-01-31T07:32:55.017Z,999.90
2018-01-31T07:33:54.966Z,999.87
2018-01-31T07:34:54.924Z,999.85
2018-01-31T07:35:55.182Z,999.89
2018-01-31T07:36:54.993Z,999.58
2018-01-31T07:37:54.799Z,999.70
2018-01-31T07:38:54.754Z,999.70
2018-01-31T07:39:54.714Z,999.68
2018-01-31T07:40:54.729Z,999.65
2018-01-31T07:41:54.927Z,999.63
2018-01-31T07:42:54.584Z,999.60
2018-01-31T07:43:54.594Z,999.60
2018-01-31T07:44:54.502Z,999.65
2018-01-31T07:45:54.476Z,999.56
2018-01-31T07:46:54.419Z,999.49
2018-01-31T07:47:54.685Z,999.50
2018-01-31T07:48:54.338Z,999.53
2018-01-31T07:49:54.290Z,999.57
2018-01-31T07:50:54.366Z,999.53
2018-01-31T07:51:54.437Z,999.48
2018-01-31T07:52:54.279Z,999.41
2018-01-31T07:53:54.234Z,999.52
2018-01-31T07:54:54.476Z,999.39
2018-01-31T07:55:54.038Z,999.41
2018-01-31T07:56:53.995Z,999.34
2018-01-31T07:57:53.952Z,999.30
2018-01-31T07:58:53.911Z,999.25
2018-01-31T07:59:53.868Z,999.23
2018-01-31T08:00:53.881Z,999.23
2018-01-31T08:01:54.119Z,999.19
2018-01-31T08:02:53.741Z,999.19
2018-01-31T08:03:53.700Z,999.23
2018-01-31T08:04:53.657Z,999.27
2018-01-31T08:05:53.615Z,999.29
2018-01-31T08:06:53.627Z,999.32
2018-01-31T08:07:53.531Z,999.39
2018-01-31T08:08:53.824Z,999.39
2018-01-31T08:09:53.496Z,999.36
2018-01-31T08:10:53.410Z,999.44
2018-01-31T08:11:53.364Z,999.49
2018-01-31T08:12:53.320Z,999.39
2018-01-31T08:13:53.278Z,999.27
2018-01-31T08:14:53.237Z,999.45
2018-01-31T08:15:53.494Z,999.47
2018-01-31T08:16:53.154Z,999.32
2018-01-31T08:17:53.109Z,999.41
2018-01-31T08:18:53.121Z,999.34
2018-01-31T08:19:53.040Z,999.37
2018-01-31T08:20:52.990Z,999.40
2018-01-31T08:21:53.000Z,999.38
2018-01-31T08:22:53.201Z,999.24
2018-01-31T08:23:52.862Z,999.31
2018-01-31T08:24:52.818Z,999.20
2018-01-31T08:25:52.772Z,999.22
2018-01-31T08:26:52.783Z,999.19
2018-01-31T08:27:52.689Z,999.11
2018-01-31T08:28:52.647Z,999.20
2018-01-31T08:29:52.905Z,999.13
2018-01-31T08:30:52.614Z,999.17
2018-01-31T08:31:52.574Z,999.14
2018-01-31T08:32:52.479Z,999.05
2018-01-31T08:33:52.486Z,999.04
2018-01-31T08:34:52.445Z,999.08
2018-01-31T08:35:52.654Z,999.10
2018-01-31T08:36:52.463Z,998.99
2018-01-31T08:37:52.268Z,999.10
2018-01-31T08:38:52.231Z,998.98
2018-01-31T08:39:52.188Z,999.05
2018-01-31T08:40:52.194Z,999.10
2018-01-31T08:41:52.402Z,999.09
2018-01-31T08:42:52.059Z,999.03
2018-01-31T08:43:52.068Z,999.15
2018-01-31T08:44:52.038Z,999.08
2018-01-31T08:45:51.988Z,999.06
2018-01-31T08:46:51.940Z,998.93
2018-01-31T08:47:52.150Z,998.94
2018-01-31T08:48:51.808Z,998.94
2018-01-31T08:49:51.820Z,999.01
2018-01-31T08:50:51.774Z,998.89
2018-01-31T08:51:51.733Z,998.95
2018-01-31T08:52:51.693Z,999.04
2018-01-31T08:53:51.897Z,998.85
2018-01-31T08:54:51.605Z,998.96
2018-01-31T08:55:51.519Z,998.88
2018-01-31T08:56:51.623Z,998.79
2018-01-31T08:57:51.431Z,998.93
2018-01-31T08:58:51.443Z,998.76
2018-01-31T08:59:51.651Z,998.75
2018-01-31T09:00:51.353Z,998.68
2018-01-31T09:01:51.311Z,998.79
2018-01-31T09:02:51.225Z,998.69
2018-01-31T09:03:51.229Z,998.71
2018-01-31T09:04:51.290Z,998.70
2018-01-31T09:05:51.092Z,998.65
2018-01-31T09:06:51.351Z,998.72
2018-01-31T09:07:51.060Z,998.62
2018-01-31T09:08:50.968Z,998.66
2018-01-31T09:09:50.930Z,998.56
2018-01-31T09:10:50.938Z,998.57
2018-01-31T09:11:50.892Z,998.49
2018-01-31T09:12:50.819Z,998.51
2018-01-31T09:13:51.057Z,998.51
2018-01-31T09:14:50.765Z,998.55
2018-01-31T09:15:50.734Z,998.55
2018-01-31T09:16:50.684Z,998.45
2018-01-31T09:17:50.592Z,998.51
2018-01-31T09:18:50.604Z,998.50
2018-01-31T09:19:50.557Z,998.41
2018-01-31T09:20:50.766Z,998.47
2018-01-31T09:21:50.472Z,998.45
2018-01-31T09:22:50.385Z,998.45
2018-01-31T09:23:50.390Z,998.33
2018-01-31T09:24:50.351Z,998.43
2018-01-31T09:25:50.337Z,998.33
2018-01-31T09:26:50.306Z,998.31
2018-01-31T09:27:50.481Z,998.36
2018-01-31T09:28:50.180Z,998.28
2018-01-31T09:29:50.239Z,998.27
2018-01-31T09:30:50.045Z,998.25
2018-01-31T09:31:50.057Z,998.18
2018-01-31T09:32:49.966Z,998.20
2018-01-31T09:33:49.920Z,998.25
2018-01-31T09:34:50.181Z,998.18
2018-01-31T09:35:49.955Z,998.03
2018-01-31T09:36:49.797Z,998.20
2018-01-31T09:37:49.805Z,998.10
2018-01-31T09:38:49.761Z,998.02
2018-01-31T09:39:49.720Z,997.93
2018-01-31T09:40:49.677Z,998.04
2018-01-31T09:41:49.909Z,998.11
2018-01-31T09:42:49.545Z,997.94
2018-01-31T09:43:49.553Z,998.00
2018-01-31T09:44:49.514Z,997.74
2018-01-31T09:45:49.423Z,997.99
2018-01-31T09:46:49.430Z,997.96
2018-01-31T09:47:49.636Z,997.88
2018-01-31T09:48:49.347Z,997.90
2018-01-31T09:49:49.314Z,997.90
2018-01-31T09:50:49.219Z,997.87
2018-01-31T09:51:49.222Z,997.89
2018-01-31T09:52:49.130Z,997.83
2018-01-31T09:53:49.436Z,997.79
2018-01-31T09:54:49.099Z,997.80
2018-01-31T09:55:49.005Z,997.77
2018-01-31T09:56:49.015Z,997.80
2018-01-31T09:57:48.925Z,997.78
2018-01-31T09:58:48.945Z,997.72
2018-01-31T09:59:49.186Z,997.76
2018-01-31T10:00:48.795Z,997.75
2018-01-31T10:01:48.904Z,997.64
2018-01-31T10:02:48.794Z,997.66
2018-01-31T10:03:48.720Z,997.54
2018-01-31T10:04:48.704Z,997.62
2018-01-31T10:05:48.904Z,997.50
2018-01-31T10:06:48.627Z,997.62
2018-01-31T10:07:48.640Z,997.62
2018-01-31T10:08:48.515Z,997.56
2018-01-31T10:09:48.574Z,997.57
2018-01-31T10:10:48.579Z,997.54
2018-01-31T10:11:48.635Z,997.58
2018-01-31T10:12:48.293Z,997.49
2018-01-31T10:13:48.303Z,997.49
2018-01-31T10:14:48.263Z,997.52
2018-01-31T10:15:48.171Z,997.43
2018-01-31T10:16:48.177Z,997.46
2018-01-31T10:17:48.089Z,997.34
2018-01-31T10:18:48.498Z,997.36
2018-01-31T10:20:48.078Z,997.31
2018-01-31T10:21:47.972Z,997.27
2018-01-31T10:22:47.882Z,997.23
2018-01-31T10:23:47.888Z,997.23
2018-01-31T10:24:48.126Z,997.26
2018-01-31T10:25:48.138Z,997.18
2018-01-31T10:26:47.757Z,997.32
2018-01-31T10:27:47.674Z,997.13
2018-01-31T10:28:47.672Z,997.22
2018-01-31T10:29:47.647Z,997.21
2018-01-31T10:30:47.547Z,997.12
2018-01-31T10:31:47.552Z,997.13
2018-01-31T10:32:47.760Z,997.20
2018-01-31T10:33:47.465Z,997.10
2018-01-31T10:34:47.421Z,997.04
2018-01-31T10:35:47.337Z,997.02
2018-01-31T10:36:47.365Z,997.01
2018-01-31T10:37:47.307Z,996.93
2018-01-31T10:38:47.253Z,996.90
2018-01-31T10:39:47.515Z,996.91
2018-01-31T10:40:47.119Z,996.78
2018-01-31T10:41:47.230Z,996.88
2018-01-31T10:42:47.110Z,996.83
2018-01-31T10:43:47.047Z,996.70
2018-01-31T10:44:47.244Z,996.83
2018-01-31T10:45:46.907Z,996.75
2018-01-31T10:46:47.215Z,996.73
2018-01-31T10:47:46.880Z,996.73
2018-01-31T10:48:46.834Z,996.81
2018-01-31T10:49:46.746Z,996.65
2018-01-31T10:50:46.748Z,996.72
2018-01-31T10:51:46.706Z,996.81
2018-01-31T10:52:46.663Z,996.76
2018-01-31T10:57:46.463Z,996.60
2018-01-31T10:58:46.410Z,996.54
2018-01-31T10:59:46.618Z,996.48
2018-01-31T11:00:46.427Z,996.50
2018-01-31T11:01:46.284Z,996.46
2018-01-31T11:02:46.242Z,996.46
2018-01-31T11:03:46.199Z,996.38
2018-01-31T11:04:46.129Z,996.30
2018-01-31T11:05:46.367Z,996.35
2018-01-31T11:06:46.073Z,996.41
2018-01-31T11:07:46.031Z,996.38
2018-01-31T11:08:45.947Z,996.24
2018-01-31T11:09:45.946Z,996.31
2018-01-31T11:10:45.906Z,996.43
2018-01-31T11:11:46.189Z,996.46
2018-01-31T11:12:45.770Z,996.34
2018-01-31T11:13:45.777Z,996.23
2018-01-31T11:14:45.696Z,996.31
2018-01-31T11:15:45.700Z,996.37
2018-01-31T11:16:45.651Z,996.29
2018-01-31T11:17:45.926Z,996.37
2018-01-31T11:18:45.567Z,996.46
2018-01-31T11:19:45.474Z,996.33
2018-01-31T11:20:45.484Z,996.28
2018-01-31T11:21:45.445Z,996.25
2018-01-31T11:22:45.359Z,996.34
2018-01-31T11:23:45.609Z,996.20
2018-01-31T11:24:45.322Z,996.28
2018-01-31T11:25:45.375Z,996.28
2018-01-31T11:26:45.234Z,996.28
2018-01-31T11:27:45.199Z,996.23
2018-01-31T11:28:45.148Z,996.25
2018-01-31T11:29:45.355Z,996.16
2018-01-31T11:30:45.077Z,996.12
2018-01-31T11:31:45.024Z,996.13
2018-01-31T11:32:44.946Z,996.08
2018-01-31T11:33:44.947Z,996.12
2018-01-31T11:34:44.902Z,995.81
2018-01-31T11:35:44.853Z,996.22
2018-01-31T11:36:45.126Z,996.07
2018-01-31T11:37:44.722Z,996.14
2018-01-31T11:38:44.738Z,996.05
2018-01-31T11:39:44.637Z,996.30
2018-01-31T11:41:44.604Z,996.30
2018-01-31T11:42:44.511Z,996.29
2018-01-31T11:43:44.824Z,996.22
2018-01-31T11:44:44.428Z,996.15
2018-01-31T11:45:44.432Z,995.90
2018-01-31T11:46:44.406Z,996.04
2018-01-31T11:47:44.296Z,995.91
2018-01-31T11:48:44.406Z,995.84
2018-01-31T11:49:44.217Z,995.89
2018-01-31T11:50:44.220Z,995.90
2018-01-31T11:51:44.176Z,995.71
2018-01-31T11:52:44.143Z,995.74
2018-01-31T11:53:44.092Z,995.77
2018-01-31T11:54:44.003Z,995.70
2018-01-31T11:55:44.007Z,995.71
2018-01-31T11:56:44.215Z,995.65
2018-01-31T11:57:43.869Z,995.67
2018-01-31T11:58:43.896Z,995.53
2018-01-31T11:59:43.859Z,995.53
2018-01-31T12:00:43.888Z,995.70
2018-01-31T12:01:43.698Z,995.59
2018-01-31T12:02:43.703Z,995.55
2018-01-31T12:03:43.940Z,995.47
2018-01-31T12:04:43.617Z,995.48
2018-01-31T12:05:43.572Z,995.53
2018-01-31T12:06:43.480Z,995.48
2018-01-31T12:07:43.508Z,995.33
2018-01-31T12:08:43.409Z,995.29
2018-01-31T12:09:43.755Z,995.36
2018-01-31T12:10:43.360Z,995.36
2018-01-31T12:11:43.263Z,995.31
2018-01-31T12:12:43.298Z,995.37
2018-01-31T12:13:43.329Z,995.35
2018-01-31T12:14:43.188Z,995.28
2018-01-31T12:15:43.399Z,995.35
2018-01-31T12:16:43.049Z,995.34
2018-01-31T12:17:43.091Z,995.39
2018-01-31T12:18:43.011Z,995.34
2018-01-31T12:19:42.920Z,995.36
2018-01-31T12:20:43.027Z,995.25
2018-01-31T12:21:43.134Z,995.32
2018-01-31T12:22:42.840Z,995.26
2018-01-31T12:23:42.801Z,995.15
2018-01-31T12:24:42.753Z,995.05
2018-01-31T12:25:42.709Z,995.14
2018-01-31T12:26:42.676Z,995.13
2018-01-31T12:27:42.624Z,995.12
2018-01-31T12:28:42.581Z,995.13
2018-01-31T12:29:42.495Z,995.04
2018-01-31T12:30:42.495Z,995.04
2018-01-31T12:31:42.451Z,995.02
2018-01-31T12:32:42.425Z,995.10
2018-01-31T12:33:42.783Z,995.06
2018-01-31T12:34:42.324Z,995.00
2018-01-31T12:35:42.279Z,995.02
2018-01-31T12:36:42.187Z,994.96
2018-01-31T12:37:42.194Z,994.98
2018-01-31T12:38:42.150Z,995.00
2018-01-31T12:39:42.357Z,994.99
2018-01-31T12:40:42.070Z,994.95
2018-01-31T12:41:41.973Z,994.95
2018-01-31T12:42:41.983Z,994.96
2018-01-31T12:43:41.886Z,994.90
2018-01-31T12:44:41.840Z,994.91
2018-01-31T12:45:41.849Z,994.88
2018-01-31T12:46:42.060Z,994.87
2018-01-31T12:47:41.714Z,994.79
2018-01-31T12:48:41.741Z,994.77
2018-01-31T12:49:41.625Z,994.77
2018-01-31T12:50:41.733Z,994.89
2018-01-31T12:51:41.688Z,994.86
2018-01-31T12:52:41.498Z,994.87
2018-01-31T12:53:41.852Z,994.87
2018-01-31T12:54:41.459Z,994.80
2018-01-31T12:55:41.365Z,994.84
2018-01-31T12:56:41.324Z,994.80
2018-01-31T12:57:41.398Z,994.83
2018-01-31T12:58:41.286Z,994.84
2018-01-31T12:59:41.193Z,994.71
2018-01-31T13:00:41.503Z,994.83
2018-01-31T13:01:41.109Z,994.69
2018-01-31T13:02:41.114Z,994.69
2018-01-31T13:03:41.023Z,994.75
2018-01-31T13:04:40.980Z,994.85
2018-01-31T13:05:40.937Z,994.75
2018-01-31T13:06:40.890Z,994.74
2018-01-31T13:07:41.148Z,994.77
2018-01-31T13:08:40.815Z,994.93
2018-01-31T13:09:40.821Z,994.77
2018-01-31T13:10:40.719Z,994.71
2018-01-31T13:11:40.680Z,994.66
2018-01-31T13:12:40.633Z,994.71
2018-01-31T13:13:40.645Z,994.86
2018-01-31T13:14:40.849Z,994.80
2018-01-31T13:15:40.558Z,994.70
2018-01-31T13:16:40.460Z,994.81
2018-01-31T13:17:40.416Z,994.71
2018-01-31T13:18:40.373Z,994.76
2018-01-31T13:19:40.329Z,994.82
2018-01-31T13:20:40.342Z,994.78
2018-01-31T13:21:40.543Z,994.72
2018-01-31T13:22:40.201Z,994.68
2018-01-31T13:23:40.207Z,994.69
2018-01-31T13:24:40.166Z,994.69
2018-01-31T13:25:40.074Z,994.71
2018-01-31T13:26:40.083Z,994.68
2018-01-31T13:27:40.287Z,994.64
2018-01-31T13:28:39.945Z,994.64
2018-01-31T13:29:40.094Z,994.61
2018-01-31T13:30:39.857Z,994.51
2018-01-31T13:31:39.820Z,994.35
2018-01-31T13:32:39.819Z,994.38
2018-01-31T13:33:40.026Z,994.53
2018-01-31T13:34:39.733Z,994.40
2018-01-31T13:35:39.689Z,994.43
2018-01-31T13:36:39.645Z,994.41
2018-01-31T13:37:39.687Z,994.44
2018-01-31T13:38:39.558Z,994.37
2018-01-31T13:39:39.816Z,994.39
2018-01-31T13:40:39.474Z,994.42
2018-01-31T13:41:39.431Z,994.38
2018-01-31T13:42:39.336Z,994.37
2018-01-31T13:43:39.294Z,994.37
2018-01-31T13:44:39.307Z,994.30
2018-01-31T13:45:39.613Z,994.34
2018-01-31T13:46:39.172Z,994.33
2018-01-31T13:47:39.121Z,994.26
2018-01-31T13:48:39.077Z,994.24
2018-01-31T13:49:39.034Z,994.19
2018-01-31T13:50:38.995Z,994.20
2018-01-31T13:51:39.313Z,994.06
2018-01-31T13:52:38.957Z,994.12
2018-01-31T13:53:38.861Z,994.05
2018-01-31T13:54:38.881Z,994.05
2018-01-31T13:55:38.776Z,994.03
2018-01-31T13:56:38.735Z,993.97
2018-01-31T13:57:38.748Z,993.90
2018-01-31T13:58:38.950Z,993.93
2018-01-31T13:59:38.659Z,993.92
2018-01-31T14:00:38.611Z,993.93
2018-01-31T14:01:38.517Z,993.89
2018-01-31T14:02:38.523Z,993.91
2018-01-31T14:03:38.484Z,993.83
2018-01-31T14:04:38.389Z,993.81
2018-01-31T14:05:38.643Z,993.85
2018-01-31T14:06:38.304Z,993.79
2018-01-31T14:07:38.308Z,993.89
2018-01-31T14:08:38.220Z,993.80
2018-01-31T14:09:38.218Z,993.78
2018-01-31T14:10:38.126Z,993.72
2018-01-31T14:11:38.235Z,993.74
2018-01-31T14:12:38.390Z,993.68
2018-01-31T14:13:38.001Z,993.64